createdAt,value
2022-09-26T00:01:20.529Z,99.08
2022-09-26T00:03:53.717Z,99.33
2022-09-26T00:06:23.153Z,99.23
2022-09-26T00:08:52.309Z,99.23
2022-09-26T00:11:23.227Z,99.19
2022-09-26T00:13:54.129Z,99.40
2022-09-26T00:16:22.632Z,98.83
2022-09-26T00:18:53.385Z,98.75
2022-09-26T00:21:22.359Z,98.77
2022-09-26T00:23:50.764Z,98.49
2022-09-26T00:26:20.584Z,98.68
2022-09-26T00:28:49.396Z,98.65
2022-09-26T00:31:20.534Z,98.31
2022-09-26T00:33:49.000Z,98.38
2022-09-26T00:36:19.168Z,98.18
2022-09-26T00:38:47.868Z,98.24
2022-09-26T00:41:17.159Z,98.49
2022-09-26T00:43:48.270Z,97.71
2022-09-26T00:46:35.456Z,96.89
2022-09-26T00:49:15.783Z,97.30
2022-09-26T00:51:53.828Z,97.37
2022-09-26T00:54:21.825Z,97.78
2022-09-26T00:56:53.369Z,99.52
2022-09-26T00:59:26.259Z,100.00
2022-09-26T01:01:57.466Z,100.00
2022-09-26T01:04:27.869Z,100.00
2022-09-26T01:06:59.354Z,100.00
2022-09-26T01:09:28.367Z,99.37
2022-09-26T01:11:58.190Z,99.38
2022-09-26T01:14:26.347Z,98.75
2022-09-26T01:16:54.604Z,99.13
2022-09-26T01:19:30.219Z,99.38
2022-09-26T01:22:37.709Z,99.14
2022-09-26T01:25:23.693Z,99.46
2022-09-26T01:28:05.651Z,99.24
2022-09-26T01:30:43.373Z,99.25
2022-09-26T01:33:34.300Z,99.42
2022-09-26T01:36:29.891Z,98.92
2022-09-26T01:39:14.471Z,98.67
2022-09-26T01:41:51.892Z,99.08
2022-09-26T01:44:30.999Z,99.27
2022-09-26T01:47:07.045Z,99.21
2022-09-26T01:49:44.762Z,99.04
2022-09-26T01:52:20.624Z,99.04
2022-09-26T01:54:55.487Z,99.55
2022-09-26T01:57:29.722Z,100.00
2022-09-26T02:00:01.153Z,100.00
2022-09-26T02:02:37.104Z,100.00
2022-09-26T02:05:09.143Z,100.00
2022-09-26T02:07:44.064Z,100.00
2022-09-26T02:10:17.708Z,99.70
2022-09-26T02:12:55.051Z,98.59
2022-09-26T02:15:26.449Z,98.42
2022-09-26T02:18:02.051Z,98.38
2022-09-26T02:20:33.177Z,98.36
2022-09-26T02:23:04.141Z,98.49
2022-09-26T02:25:32.828Z,98.62
2022-09-26T02:28:01.373Z,98.77
2022-09-26T02:30:30.292Z,98.86
2022-09-26T02:33:02.124Z,98.73
2022-09-26T02:36:03.843Z,98.47
2022-09-26T02:38:33.663Z,98.80
2022-09-26T02:41:22.523Z,99.16
2022-09-26T02:44:12.978Z,98.65
2022-09-26T02:47:05.879Z,98.18
2022-09-26T02:49:50.756Z,98.27
2022-09-26T02:52:32.665Z,98.09
2022-09-26T02:55:11.454Z,97.57
2022-09-26T02:57:49.905Z,98.07
2022-09-26T03:00:22.423Z,98.05
2022-09-26T03:02:58.121Z,98.23
2022-09-26T03:05:30.979Z,98.55
2022-09-26T03:08:06.417Z,98.36
2022-09-26T03:10:35.494Z,98.14
2022-09-26T03:13:08.220Z,97.46
2022-09-26T03:15:38.549Z,97.44
2022-09-26T03:18:11.644Z,97.69
2022-09-26T03:20:41.897Z,96.70
2022-09-26T03:23:10.028Z,96.71
2022-09-26T03:25:38.655Z,96.65
2022-09-26T03:28:10.631Z,96.66
2022-09-26T03:30:39.775Z,96.61
2022-09-26T03:33:25.942Z,97.28
2022-09-26T03:35:59.512Z,97.26
2022-09-26T03:38:28.072Z,97.12
2022-09-26T03:41:07.267Z,97.58
2022-09-26T03:43:57.400Z,97.70
2022-09-26T03:46:28.671Z,97.41
2022-09-26T03:48:56.894Z,97.49
2022-09-26T03:51:26.570Z,97.47
2022-09-26T03:53:54.519Z,96.86
2022-09-26T03:56:26.870Z,96.46
2022-09-26T03:58:55.085Z,96.19
2022-09-26T04:01:24.746Z,96.43
2022-09-26T04:03:52.738Z,96.99
2022-09-26T04:06:21.590Z,96.28
2022-09-26T04:08:54.130Z,96.81
2022-09-26T04:11:24.632Z,96.53
2022-09-26T04:13:54.135Z,96.92
2022-09-26T04:16:25.616Z,96.84
2022-09-26T04:18:59.982Z,96.88
2022-09-26T04:21:29.850Z,96.79
2022-09-26T04:24:01.094Z,97.03
2022-09-26T04:26:29.207Z,97.31
2022-09-26T04:28:59.090Z,97.69
2022-09-26T04:31:48.096Z,97.40
2022-09-26T04:34:21.351Z,97.78
2022-09-26T04:36:53.009Z,97.63
2022-09-26T04:39:24.225Z,97.55
2022-09-26T04:41:53.246Z,98.03
2022-09-26T04:44:22.091Z,98.25
2022-09-26T04:46:50.449Z,98.26
2022-09-26T04:49:20.849Z,98.43
2022-09-26T04:51:48.890Z,97.83
2022-09-26T04:54:17.329Z,97.45
2022-09-26T04:56:47.337Z,97.44
2022-09-26T04:59:15.444Z,97.54
2022-09-26T05:01:56.936Z,96.77
2022-09-26T05:04:33.449Z,96.48
2022-09-26T05:07:01.548Z,96.13
2022-09-26T05:09:35.762Z,95.85
2022-09-26T05:12:09.581Z,95.25
2022-09-26T05:14:39.728Z,95.26
2022-09-26T05:17:11.070Z,95.48
2022-09-26T05:19:39.881Z,96.35
2022-09-26T05:22:22.844Z,96.04
2022-09-26T05:25:08.126Z,96.29
2022-09-26T05:27:39.049Z,96.20
2022-09-26T05:30:08.393Z,96.62
2022-09-26T05:32:36.362Z,96.47
2022-09-26T05:35:05.660Z,97.47
2022-09-26T05:37:37.971Z,97.48
2022-09-26T05:40:24.479Z,97.06
2022-09-26T05:43:01.189Z,96.79
2022-09-26T05:45:31.273Z,97.14
2022-09-26T05:48:01.176Z,97.69
2022-09-26T05:50:29.145Z,97.69
2022-09-26T05:52:58.555Z,97.20
2022-09-26T05:55:27.332Z,97.10
2022-09-26T05:58:06.316Z,96.85
2022-09-26T06:00:54.509Z,96.34
2022-09-26T06:03:23.038Z,95.72
2022-09-26T06:06:08.795Z,95.99
2022-09-26T06:08:38.998Z,95.69
2022-09-26T06:11:22.622Z,95.51
2022-09-26T06:13:53.001Z,94.93
2022-09-26T06:16:22.343Z,95.08
2022-09-26T06:18:52.571Z,95.81
2022-09-26T06:21:21.339Z,95.77
2022-09-26T06:23:53.261Z,96.11
2022-09-26T06:26:24.118Z,96.07
2022-09-26T06:28:59.791Z,95.73
2022-09-26T06:31:30.494Z,95.19
2022-09-26T06:34:12.930Z,95.20
2022-09-26T06:37:16.212Z,95.82
2022-09-26T06:39:44.218Z,95.12
2022-09-26T06:42:12.969Z,96.09
2022-09-26T06:45:16.733Z,97.45
2022-09-26T06:48:03.451Z,98.70
2022-09-26T06:50:36.415Z,98.91
2022-09-26T06:53:07.486Z,99.28
2022-09-26T06:55:40.930Z,99.37
2022-09-26T06:58:09.182Z,99.48
2022-09-26T07:00:52.421Z,99.08
2022-09-26T07:03:45.336Z,98.27
2022-09-26T07:06:36.627Z,97.79
2022-09-26T07:09:09.897Z,97.44
2022-09-26T07:12:13.574Z,97.38
2022-09-26T07:14:38.271Z,97.37
2022-09-26T07:17:20.658Z,97.38
2022-09-26T07:20:12.536Z,96.80
2022-09-26T07:23:04.448Z,95.97
2022-09-26T07:25:33.516Z,96.14
2022-09-26T07:28:03.273Z,95.46
2022-09-26T07:30:58.191Z,94.85
2022-09-26T07:33:35.296Z,94.87
2022-09-26T07:36:08.595Z,94.92
2022-09-26T07:38:36.672Z,94.91
2022-09-26T07:41:07.391Z,95.24
2022-09-26T07:44:21.753Z,95.07
2022-09-26T07:46:42.397Z,94.33
2022-09-26T07:49:30.117Z,94.32
2022-09-26T07:52:15.144Z,93.40
2022-09-26T07:54:51.339Z,92.73
2022-09-26T07:57:38.958Z,92.87
2022-09-26T08:00:21.486Z,93.70
2022-09-26T08:03:09.864Z,93.03
2022-09-26T08:05:40.621Z,94.06
2022-09-26T08:08:08.738Z,95.15
2022-09-26T08:11:01.548Z,95.00
2022-09-26T08:13:34.635Z,95.18
2022-09-26T08:16:23.134Z,95.24
2022-09-26T08:18:55.284Z,94.58
2022-09-26T08:21:26.729Z,95.13
2022-09-26T08:23:57.916Z,95.44
2022-09-26T08:26:48.390Z,95.02
2022-09-26T08:29:23.582Z,95.60
2022-09-26T08:31:54.792Z,95.27
2022-09-26T08:34:25.711Z,95.30
2022-09-26T08:37:14.527Z,94.76
2022-09-26T08:40:01.227Z,95.63
2022-09-26T08:43:04.336Z,94.86
2022-09-26T08:46:41.543Z,94.23
2022-09-26T08:49:49.008Z,93.37
2022-09-26T08:52:34.318Z,93.88
2022-09-26T08:55:07.269Z,93.89
2022-09-26T08:57:41.124Z,93.94
2022-09-26T09:00:20.236Z,93.96
2022-09-26T09:03:15.702Z,94.07
2022-09-26T09:05:49.823Z,93.12
2022-09-26T09:08:23.958Z,92.32
2022-09-26T09:11:19.376Z,92.29
2022-09-26T09:14:06.540Z,92.04
2022-09-26T09:17:05.040Z,92.05
2022-09-26T09:20:16.136Z,92.93
2022-09-26T09:23:24.579Z,91.93
2022-09-26T09:29:22.886Z,91.72
2022-09-26T09:32:22.670Z,92.21
2022-09-26T09:35:03.594Z,92.01
2022-09-26T09:37:54.916Z,91.01
2022-09-26T09:40:45.547Z,91.61
2022-09-26T09:43:18.227Z,91.93
2022-09-26T09:45:49.926Z,91.85
2022-09-26T09:48:18.834Z,91.46
2022-09-26T09:50:56.467Z,91.32
2022-09-26T09:53:48.208Z,91.60
2022-09-26T09:56:28.784Z,90.82
2022-09-26T09:59:11.545Z,91.48
2022-09-26T10:02:19.486Z,91.96
2022-09-26T10:04:56.522Z,91.64
2022-09-26T10:07:25.040Z,92.16
2022-09-26T10:10:19.947Z,91.74
2022-09-26T10:13:22.531Z,90.79
2022-09-26T10:16:18.162Z,90.36
2022-09-26T10:19:03.577Z,89.72
2022-09-26T10:21:35.190Z,90.53
2022-09-26T10:24:05.096Z,89.82
2022-09-26T10:26:49.479Z,89.51
2022-09-26T10:29:35.203Z,88.59
2022-09-26T10:32:04.648Z,88.22
2022-09-26T10:34:35.232Z,88.98
2022-09-26T10:37:22.493Z,89.54
2022-09-26T10:40:12.853Z,89.12
2022-09-26T10:42:43.210Z,88.34
2022-09-26T10:45:17.576Z,88.26
2022-09-26T10:48:13.671Z,88.54
2022-09-26T10:51:02.075Z,86.41
2022-09-26T10:53:37.530Z,85.72
2022-09-26T10:56:12.572Z,85.44
2022-09-26T10:58:43.564Z,85.67
2022-09-26T11:01:25.691Z,85.27
2022-09-26T11:03:56.327Z,85.33
2022-09-26T11:06:26.728Z,84.07
2022-09-26T11:09:03.364Z,84.49
2022-09-26T11:11:52.445Z,84.47
2022-09-26T11:14:29.166Z,83.60
2022-09-26T11:17:13.469Z,83.53
2022-09-26T11:19:54.528Z,83.22
2022-09-26T11:22:33.807Z,82.17
2022-09-26T11:25:08.007Z,81.41
2022-09-26T11:27:44.005Z,81.13
2022-09-26T11:30:20.766Z,80.44
2022-09-26T11:33:13.480Z,77.39
2022-09-26T11:36:45.293Z,76.56
2022-09-26T11:39:28.128Z,76.56
2022-09-26T11:42:13.795Z,75.46
2022-09-26T11:44:59.625Z,76.22
2022-09-26T11:48:10.994Z,73.38
2022-09-26T11:51:09.413Z,74.92
2022-09-26T11:54:00.958Z,73.16
2022-09-26T11:56:53.159Z,73.34
2022-09-26T11:59:39.310Z,71.14
2022-09-26T12:02:24.319Z,71.00
2022-09-26T12:05:27.267Z,69.99
2022-09-26T12:08:06.847Z,70.88
2022-09-26T12:10:47.951Z,71.57
2022-09-26T12:13:35.077Z,71.96
2022-09-26T12:16:12.326Z,70.95
2022-09-26T12:18:48.852Z,70.20
2022-09-26T12:21:27.394Z,71.36
2022-09-26T12:24:00.733Z,71.53
2022-09-26T12:26:38.120Z,72.89
2022-09-26T12:29:19.851Z,68.27
2022-09-26T12:32:02.845Z,68.53
2022-09-26T12:34:50.658Z,69.15
2022-09-26T12:37:41.064Z,67.81
2022-09-26T12:40:24.640Z,67.66
2022-09-26T12:43:19.913Z,69.76
2022-09-26T12:46:07.571Z,69.42
2022-09-26T12:48:49.824Z,69.12
2022-09-26T12:51:28.804Z,69.25
2022-09-26T12:54:21.594Z,68.39
2022-09-26T12:56:54.756Z,70.53
2022-09-26T12:59:46.786Z,69.70
2022-09-26T13:02:44.185Z,70.20
2022-09-26T13:05:44.311Z,68.90
2022-09-26T13:08:21.642Z,70.88
2022-09-26T13:11:07.108Z,69.79
2022-09-26T13:14:09.097Z,69.25
2022-09-26T13:16:50.996Z,68.64
2022-09-26T13:19:27.779Z,69.00
2022-09-26T13:21:59.454Z,68.42
2022-09-26T13:24:35.794Z,68.69
2022-09-26T13:27:14.768Z,68.46
2022-09-26T13:29:47.832Z,68.60
2022-09-26T13:32:22.807Z,66.88
2022-09-26T13:34:57.109Z,67.61
2022-09-26T13:37:38.361Z,64.84
2022-09-26T13:40:21.179Z,65.13
2022-09-26T13:43:03.067Z,66.31
2022-09-26T13:45:46.536Z,64.97
2022-09-26T13:48:20.846Z,65.32
2022-09-26T13:50:55.894Z,64.89
2022-09-26T13:53:32.410Z,64.79
2022-09-26T13:56:42.820Z,61.65
2022-09-26T13:59:54.271Z,60.40
2022-09-26T14:02:29.245Z,61.73
2022-09-26T14:05:29.571Z,59.68
2022-09-26T14:08:15.244Z,61.69
2022-09-26T14:10:53.254Z,63.55
2022-09-26T14:13:34.645Z,63.36
2022-09-26T14:16:06.221Z,63.08
2022-09-26T14:18:55.220Z,63.97
2022-09-26T14:21:39.872Z,60.63
2022-09-26T14:24:38.575Z,61.36
2022-09-26T14:27:27.273Z,61.78
2022-09-26T14:30:01.287Z,61.76
2022-09-26T14:32:38.192Z,61.61
2022-09-26T14:35:18.788Z,60.58
2022-09-26T14:37:50.191Z,61.35
2022-09-26T14:40:35.050Z,61.47
2022-09-26T14:43:14.033Z,61.94
2022-09-26T14:45:51.202Z,63.62
2022-09-26T14:48:33.345Z,62.70
2022-09-26T14:51:05.615Z,63.33
2022-09-26T14:53:40.609Z,63.25
2022-09-26T14:56:11.680Z,63.99
2022-09-26T14:58:50.130Z,64.51
2022-09-26T15:01:26.305Z,64.24
2022-09-26T15:03:59.167Z,64.48
2022-09-26T15:06:30.182Z,65.08
2022-09-26T15:08:59.741Z,65.17
2022-09-26T15:11:34.776Z,64.89
2022-09-26T15:14:14.952Z,63.84
2022-09-26T15:16:48.379Z,65.26
2022-09-26T15:19:22.116Z,65.19
2022-09-26T15:21:55.706Z,66.14
2022-09-26T15:24:26.461Z,66.30
2022-09-26T15:26:57.002Z,66.36
2022-09-26T15:29:25.455Z,66.08
2022-09-26T15:31:55.926Z,65.58
2022-09-26T15:34:36.701Z,64.86
2022-09-26T15:37:15.647Z,65.91
2022-09-26T15:39:44.149Z,66.05
2022-09-26T15:42:42.234Z,67.20
2022-09-26T15:45:33.450Z,66.46
2022-09-26T15:48:04.284Z,67.04
2022-09-26T15:50:49.435Z,67.14
2022-09-26T15:53:24.346Z,67.56
2022-09-26T15:55:56.820Z,67.03
2022-09-26T15:58:32.922Z,66.93
2022-09-26T16:01:01.576Z,67.52
2022-09-26T16:03:40.647Z,66.76
2022-09-26T16:06:29.138Z,66.92
2022-09-26T16:09:04.988Z,67.44
2022-09-26T16:11:34.478Z,66.89
2022-09-26T16:14:02.759Z,66.74
2022-09-26T16:16:33.372Z,66.09
2022-09-26T16:19:04.525Z,65.74
2022-09-26T16:21:37.668Z,64.92
2022-09-26T16:24:29.978Z,65.20
2022-09-26T16:26:58.114Z,65.51
2022-09-26T16:29:34.827Z,64.62
2022-09-26T16:32:04.149Z,64.68
2022-09-26T16:34:32.373Z,64.79
2022-09-26T16:37:01.753Z,65.96
2022-09-26T16:39:32.522Z,65.86
2022-09-26T16:42:03.457Z,65.42
2022-09-26T16:44:35.905Z,65.80
2022-09-26T16:47:06.237Z,65.82
2022-09-26T16:49:46.141Z,66.79
2022-09-26T16:52:35.672Z,66.15
2022-09-26T16:55:07.078Z,65.96
2022-09-26T16:57:38.321Z,65.59
2022-09-26T17:00:33.145Z,65.44
2022-09-26T17:03:01.192Z,65.61
2022-09-26T17:05:29.332Z,65.14
2022-09-26T17:07:58.762Z,64.95
2022-09-26T17:10:27.316Z,65.85
2022-09-26T17:12:56.384Z,65.59
2022-09-26T17:15:30.900Z,65.28
2022-09-26T17:18:01.357Z,64.99
2022-09-26T17:20:29.979Z,65.74
2022-09-26T17:23:07.991Z,66.14
2022-09-26T17:25:52.024Z,66.68
2022-09-26T17:28:30.404Z,67.12
2022-09-26T17:31:06.202Z,66.43
2022-09-26T17:33:37.900Z,66.46
2022-09-26T17:36:10.747Z,66.54
2022-09-26T17:38:41.313Z,66.21
2022-09-26T17:41:12.535Z,65.55
2022-09-26T17:43:40.733Z,66.52
2022-09-26T17:46:16.363Z,66.74
2022-09-26T17:48:45.937Z,67.51
2022-09-26T17:51:14.983Z,68.99
2022-09-26T17:53:50.882Z,71.34
2022-09-26T17:56:20.023Z,72.50
2022-09-26T17:58:51.331Z,72.22
2022-09-26T18:01:23.341Z,71.46
2022-09-26T18:03:54.545Z,70.48
2022-09-26T18:06:26.042Z,70.58
2022-09-26T18:08:59.719Z,69.60
2022-09-26T18:11:28.252Z,69.02
2022-09-26T18:13:56.950Z,69.70
2022-09-26T18:16:25.430Z,68.73
2022-09-26T18:18:53.418Z,68.66
2022-09-26T18:21:24.352Z,68.14
2022-09-26T18:23:58.052Z,68.18
2022-09-26T18:29:02.422Z,68.73
2022-09-26T18:31:32.978Z,68.48
2022-09-26T18:34:03.132Z,68.71
2022-09-26T18:36:33.899Z,69.34
2022-09-26T18:39:03.366Z,69.24
2022-09-26T18:41:31.522Z,68.79
2022-09-26T18:44:03.013Z,68.98
2022-09-26T18:46:31.619Z,70.09
2022-09-26T18:49:06.268Z,71.17
2022-09-26T18:51:34.976Z,71.98
2022-09-26T18:54:10.731Z,72.37
2022-09-26T18:56:56.915Z,72.79
2022-09-26T18:59:28.916Z,73.28
2022-09-26T19:01:58.366Z,72.89
2022-09-26T19:04:27.267Z,72.62
2022-09-26T19:07:00.883Z,73.21
2022-09-26T19:09:34.367Z,74.46
2022-09-26T19:12:03.143Z,74.42
2022-09-26T19:14:32.312Z,75.65
2022-09-26T19:17:00.591Z,77.23
2022-09-26T19:19:30.314Z,77.75
2022-09-26T19:22:00.526Z,76.53
2022-09-26T19:24:35.402Z,76.05
2022-09-26T19:27:07.447Z,77.05
2022-09-26T19:29:39.861Z,77.80
2022-09-26T19:32:13.220Z,78.81
2022-09-26T19:34:41.377Z,78.30
2022-09-26T19:37:10.583Z,78.51
2022-09-26T19:39:40.102Z,78.29
2022-09-26T19:42:08.167Z,78.37
2022-09-26T19:44:36.207Z,79.53
2022-09-26T19:47:04.822Z,80.01
2022-09-26T19:49:33.313Z,80.59
2022-09-26T19:52:02.531Z,80.83
2022-09-26T19:54:30.635Z,79.43
2022-09-26T19:57:00.200Z,78.81
2022-09-26T19:59:28.203Z,79.00
2022-09-26T20:01:56.400Z,78.68
2022-09-26T20:04:24.521Z,78.76
2022-09-26T20:06:52.511Z,78.60
2022-09-26T20:09:21.395Z,78.91
2022-09-26T20:11:49.599Z,78.96
2022-09-26T20:14:24.901Z,79.35
2022-09-26T20:16:55.359Z,79.07
2022-09-26T20:19:29.456Z,79.32
2022-09-26T20:22:01.886Z,79.06
2022-09-26T20:24:31.984Z,78.70
2022-09-26T20:27:02.971Z,79.28
2022-09-26T20:29:52.472Z,79.50
2022-09-26T20:32:19.502Z,79.91
2022-09-26T20:34:48.323Z,79.77
2022-09-26T20:37:16.602Z,79.16
2022-09-26T20:39:46.943Z,78.95
2022-09-26T20:42:18.715Z,78.29
2022-09-26T20:44:50.828Z,79.73
2022-09-26T20:47:21.255Z,79.86
2022-09-26T20:49:53.915Z,79.65
2022-09-26T20:52:24.391Z,79.02
2022-09-26T20:54:53.261Z,77.60
2022-09-26T20:57:22.281Z,77.08
2022-09-26T20:59:52.696Z,76.72
2022-09-26T21:02:29.908Z,75.76
2022-09-26T21:05:00.262Z,75.71
2022-09-26T21:07:29.991Z,75.41
2022-09-26T21:09:57.938Z,74.66
2022-09-26T21:12:26.130Z,74.37
2022-09-26T21:14:55.479Z,74.44
2022-09-26T21:17:28.129Z,75.10
2022-09-26T21:19:56.686Z,75.83
2022-09-26T21:22:47.753Z,74.65
2022-09-26T21:25:18.212Z,74.45
2022-09-26T21:27:46.705Z,74.64
2022-09-26T21:30:17.414Z,74.34
2022-09-26T21:32:49.415Z,74.37
2022-09-26T21:35:19.551Z,75.62
2022-09-26T21:37:51.588Z,75.50
2022-09-26T21:40:22.616Z,75.79
2022-09-26T21:42:54.375Z,76.05
2022-09-26T21:45:27.677Z,76.75
2022-09-26T21:47:56.336Z,76.95
2022-09-26T21:50:26.995Z,77.51
2022-09-26T21:53:01.036Z,77.97
2022-09-26T21:55:35.223Z,78.88
2022-09-26T21:58:08.755Z,80.41
2022-09-26T22:00:38.108Z,81.77
2022-09-26T22:03:06.747Z,83.39
2022-09-26T22:05:34.744Z,83.50
2022-09-26T22:08:03.011Z,84.03
2022-09-26T22:10:31.332Z,84.28
2022-09-26T22:12:59.569Z,84.91
2022-09-26T22:15:27.543Z,84.80
2022-09-26T22:17:57.911Z,85.75
2022-09-26T22:20:26.471Z,87.27
2022-09-26T22:22:54.455Z,87.92
2022-09-26T22:25:22.466Z,88.18
2022-09-26T22:27:50.447Z,88.58
2022-09-26T22:30:18.518Z,88.05
2022-09-26T22:32:46.535Z,88.31
2022-09-26T22:35:15.995Z,88.67
2022-09-26T22:37:44.204Z,89.48
2022-09-26T22:40:12.268Z,89.62
2022-09-26T22:42:40.374Z,88.86
2022-09-26T22:45:09.375Z,87.85
2022-09-26T22:47:37.346Z,87.67
2022-09-26T22:50:06.058Z,88.01
2022-09-26T22:52:35.674Z,88.35
2022-09-26T22:55:03.633Z,87.69
2022-09-26T22:57:32.940Z,87.61
2022-09-26T23:00:01.901Z,88.19
2022-09-26T23:02:29.929Z,88.01
2022-09-26T23:04:57.909Z,88.63
2022-09-26T23:07:25.927Z,88.37
2022-09-26T23:09:55.229Z,88.15
2022-09-26T23:12:23.220Z,87.97
2022-09-26T23:14:51.198Z,88.50
2022-09-26T23:17:19.150Z,88.81
2022-09-26T23:19:47.120Z,89.16
2022-09-26T23:22:15.412Z,89.69
2022-09-26T23:24:43.403Z,90.32
2022-09-26T23:27:12.753Z,90.82
2022-09-26T23:29:41.369Z,90.46
2022-09-26T23:32:09.335Z,90.89
2022-09-26T23:34:37.320Z,91.74
2022-09-26T23:37:05.301Z,92.12
2022-09-26T23:39:33.261Z,90.22
2022-09-26T23:42:01.290Z,90.12
2022-09-26T23:44:32.643Z,89.81
2022-09-26T23:47:02.642Z,89.00
2022-09-26T23:49:30.658Z,88.89
2022-09-26T23:51:58.682Z,89.26
2022-09-26T23:54:26.692Z,89.61
2022-09-26T23:56:54.696Z,89.52
2022-09-26T23:59:22.646Z,90.69
